Time;durP1;ratioP1;P1;durP2;ratioP2;P2;SDS_P1;SDS_P2;PMS_P1;PMS_P2;Temp;Humidity;BMP_temperature;BMP_pressure;BME280_temperature;BME280_humidity;BME280_pressure;Samples;Min_cycle;Max_cycle;Signal;HPM_P1;HPM_P2
2022/10/24 00:01:40;;;;;;;7.40;3.05;;;14.50;99.90;;;;;;5048828;28;20518;-74
2022/10/24 00:04:06;;;;;;;8.05;2.67;;;14.40;99.90;;;;;;5065007;28;20063;-74
2022/10/24 00:06:32;;;;;;;16.00;5.57;;;14.50;99.90;;;;;;5052006;28;20052;-74
2022/10/24 00:08:58;;;;;;;6.78;2.90;;;14.50;99.90;;;;;;5060962;28;20066;-74
2022/10/24 00:11:25;;;;;;;8.13;2.30;;;14.40;99.90;;;;;;5052724;28;20049;-74
2022/10/24 00:13:52;;;;;;;5.32;2.40;;;14.30;99.90;;;;;;5046347;28;20048;-74
2022/10/24 00:16:18;;;;;;;5.13;2.40;;;14.40;99.90;;;;;;5035668;28;20053;-75
2022/10/24 00:18:44;;;;;;;7.50;2.17;;;14.30;99.90;;;;;;5039208;28;20049;-74
2022/10/24 00:21:10;;;;;;;8.85;3.65;;;14.40;99.90;;;;;;5057513;28;20052;-74
2022/10/24 00:23:36;;;;;;;9.52;2.40;;;14.30;99.90;;;;;;5064689;28;20091;-74
2022/10/24 00:26:05;;;;;;;9.55;2.88;;;14.30;99.90;;;;;;5067333;28;20044;-74
2022/10/24 00:28:31;;;;;;;7.95;2.88;;;14.30;99.90;;;;;;5049991;28;20388;-74
2022/10/24 00:30:57;;;;;;;5.95;1.77;;;14.30;99.90;;;;;;5053233;28;20057;-74
2022/10/24 00:33:24;;;;;;;8.32;2.22;;;14.30;99.90;;;;;;5063742;28;20478;-74
2022/10/24 00:35:50;;;;;;;8.18;2.45;;;14.40;99.90;;;;;;5049778;28;20136;-74
2022/10/24 00:38:15;;;;;;;8.02;1.85;;;14.30;99.90;;;;;;5029273;28;20465;-74
2022/10/24 00:40:41;;;;;;;6.93;2.28;;;14.40;99.90;;;;;;5025561;28;20428;-74
2022/10/24 00:43:22;;;;;;;6.20;2.00;;;14.40;99.90;;;;;;5044095;28;20135;-74
2022/10/24 00:45:59;;;;;;;6.68;2.70;;;14.40;99.90;;;;;;5046422;28;20041;-74
2022/10/24 00:48:36;;;;;;;6.20;1.90;;;14.40;99.90;;;;;;5029344;28;20116;-73
2022/10/24 00:51:17;;;;;;;10.45;2.58;;;14.40;99.90;;;;;;5041636;28;128384;-74
2022/10/24 00:53:47;;;;;;;5.90;1.75;;;14.30;99.90;;;;;;5046645;28;20045;-74
2022/10/24 00:56:15;;;;;;;4.72;2.15;;;14.30;99.90;;;;;;5038374;28;20049;-75
2022/10/24 00:58:43;;;;;;;8.63;2.30;;;14.20;99.90;;;;;;5037607;28;20037;-74
2022/10/24 01:01:09;;;;;;;5.15;2.00;;;14.30;99.90;;;;;;5042482;28;20069;-74
2022/10/24 01:03:35;;;;;;;7.10;1.85;;;14.40;99.90;;;;;;5038434;28;20045;-74
2022/10/24 01:06:07;;;;;;;7.05;1.77;;;14.40;99.90;;;;;;5045863;28;20052;-74
2022/10/24 01:08:46;;;;;;;7.13;2.15;;;14.30;99.90;;;;;;5036526;28;20103;-74
2022/10/24 01:11:30;;;;;;;5.13;2.00;;;14.30;99.90;;;;;;5031861;28;20042;-74
2022/10/24 01:14:05;;;;;;;9.55;2.28;;;14.30;99.90;;;;;;5043465;28;20056;-74
2022/10/24 01:16:49;;;;;;;8.30;2.15;;;14.30;99.90;;;;;;5028710;28;20077;-75
2022/10/24 01:19:39;;;;;;;6.00;1.90;;;14.20;99.90;;;;;;5044090;28;20052;-74
2022/10/24 01:22:14;;;;;;;6.85;2.08;;;14.20;99.90;;;;;;5039364;28;20061;-74
2022/10/24 01:25:00;;;;;;;7.90;1.83;;;14.20;99.90;;;;;;5039862;28;20061;-74
2022/10/24 01:27:59;;;;;;;6.63;1.48;;;14.20;99.90;;;;;;5031085;28;20037;-74
2022/10/24 01:30:28;;;;;;;10.30;1.40;;;14.20;99.90;;;;;;5027219;28;20053;-74
2022/10/24 01:33:10;;;;;;;4.65;1.40;;;14.30;99.90;;;;;;5049914;28;20048;-73
2022/10/24 01:35:45;;;;;;;8.23;1.70;;;14.30;99.90;;;;;;5061690;28;20403;-74
2022/10/24 01:38:22;;;;;;;7.32;1.65;;;14.40;99.90;;;;;;5053616;28;20055;-74
2022/10/24 01:41:16;;;;;;;10.98;2.58;;;14.40;99.90;;;;;;5069003;28;20124;-74
2022/10/24 01:44:01;;;;;;;3.83;1.70;;;14.40;99.90;;;;;;5047949;28;20053;-74
2022/10/24 01:46:38;;;;;;;8.02;1.83;;;14.50;99.90;;;;;;5037099;28;20049;-74
2022/10/24 01:49:11;;;;;;;8.20;1.80;;;14.40;99.90;;;;;;5047923;28;20488;-74
2022/10/24 01:51:39;;;;;;;5.30;1.73;;;14.40;99.90;;;;;;5046175;28;20061;-74
2022/10/24 01:54:07;;;;;;;3.88;1.50;;;14.50;99.90;;;;;;5030329;28;20049;-74
2022/10/24 01:56:33;;;;;;;7.38;2.20;;;14.60;99.90;;;;;;5057023;28;20079;-74
2022/10/24 01:59:24;;;;;;;10.77;2.50;;;14.60;99.90;;;;;;5066376;28;20094;-74
2022/10/24 02:01:52;;;;;;;6.90;1.35;;;14.60;99.90;;;;;;5068982;28;20057;-74
2022/10/24 02:04:18;;;;;;;5.43;2.05;;;14.60;99.90;;;;;;5067853;28;20048;-73
2022/10/24 02:06:45;;;;;;;8.10;2.25;;;14.60;99.90;;;;;;5038780;28;20094;-75
2022/10/24 02:09:16;;;;;;;8.63;2.08;;;14.70;99.90;;;;;;5026329;28;20524;-74
2022/10/24 02:11:45;;;;;;;7.40;2.07;;;14.70;99.90;;;;;;5041108;28;20143;-74
2022/10/24 02:14:24;;;;;;;7.32;2.05;;;14.70;99.90;;;;;;5068537;28;20661;-74
2022/10/24 02:16:51;;;;;;;7.03;2.20;;;14.70;99.90;;;;;;5054715;28;20192;-74
2022/10/24 02:19:17;;;;;;;9.65;2.65;;;14.60;99.90;;;;;;5066524;28;20048;-74
2022/10/24 02:21:54;;;;;;;7.28;2.35;;;14.80;99.90;;;;;;5049862;28;20503;-74
2022/10/24 02:24:31;;;;;;;12.00;2.55;;;14.70;99.90;;;;;;5047538;28;20087;-74
2022/10/24 02:27:04;;;;;;;5.32;2.13;;;14.70;99.90;;;;;;5038704;28;20064;-74
2022/10/24 02:29:37;;;;;;;9.27;2.45;;;14.80;99.90;;;;;;5067059;28;20036;-73
2022/10/24 02:32:07;;;;;;;9.23;2.35;;;14.80;99.90;;;;;;5067863;28;20056;-75
2022/10/24 02:34:35;;;;;;;8.00;2.60;;;14.80;99.90;;;;;;5069216;28;20629;-74
2022/10/24 02:37:03;;;;;;;7.53;2.50;;;14.80;99.90;;;;;;5053039;28;20080;-73
2022/10/24 02:39:31;;;;;;;8.05;2.50;;;14.90;99.90;;;;;;5068120;28;20048;-74
2022/10/24 02:41:58;;;;;;;9.30;2.75;;;15.00;99.90;;;;;;5050664;28;20053;-74
2022/10/24 02:44:27;;;;;;;9.63;2.70;;;15.00;99.90;;;;;;5054355;28;20041;-74
2022/10/24 02:46:57;;;;;;;7.53;2.40;;;15.00;99.90;;;;;;5034040;28;20045;-74
2022/10/24 02:49:23;;;;;;;10.98;2.50;;;15.00;99.90;;;;;;5045623;28;20054;-74
2022/10/24 02:51:50;;;;;;;9.43;2.50;;;15.00;99.90;;;;;;5049215;28;20056;-74
2022/10/24 02:54:17;;;;;;;9.48;2.58;;;14.90;99.90;;;;;;5030224;28;20049;-74
2022/10/24 02:56:47;;;;;;;10.18;2.75;;;14.90;99.90;;;;;;5033897;28;20060;-73
2022/10/24 02:59:13;;;;;;;4.55;2.30;;;14.90;99.90;;;;;;5046967;28;20037;-74
2022/10/24 03:01:38;;;;;;;10.48;2.67;;;14.90;99.90;;;;;;5049504;28;20393;-74
2022/10/24 03:04:04;;;;;;;9.75;2.67;;;15.00;99.90;;;;;;5047770;28;20049;-74
2022/10/24 03:06:31;;;;;;;8.88;2.25;;;15.00;99.90;;;;;;5037173;28;20411;-74
2022/10/24 03:08:56;;;;;;;6.40;2.30;;;15.00;99.90;;;;;;5045476;28;20076;-73
2022/10/24 03:11:22;;;;;;;8.10;2.22;;;15.00;99.90;;;;;;5038330;28;20053;-73
2022/10/24 03:13:48;;;;;;;6.85;2.70;;;15.00;99.90;;;;;;5046449;28;20044;-73
2022/10/24 03:16:13;;;;;;;12.48;2.08;;;15.20;99.90;;;;;;5005251;28;20056;-73
2022/10/24 03:18:39;;;;;;;10.20;2.30;;;15.20;99.90;;;;;;5057930;28;20492;-73
2022/10/24 03:21:04;;;;;;;9.38;2.45;;;15.20;99.90;;;;;;5051718;28;20049;-73
2022/10/24 03:23:30;;;;;;;8.40;2.35;;;15.20;99.90;;;;;;5043203;28;20160;-74
2022/10/24 03:25:57;;;;;;;5.25;2.83;;;15.20;99.90;;;;;;5038421;28;20499;-73
2022/10/24 03:28:23;;;;;;;5.85;2.42;;;15.10;99.90;;;;;;5049931;28;20044;-75
2022/10/24 03:30:48;;;;;;;12.00;2.13;;;15.20;99.90;;;;;;5068886;28;20059;-74
2022/10/24 03:33:14;;;;;;;8.40;2.70;;;15.20;99.90;;;;;;5050351;28;20812;-73
2022/10/24 03:35:40;;;;;;;7.85;2.15;;;15.10;99.90;;;;;;5044042;28;20049;-74
2022/10/24 03:38:09;;;;;;;8.85;2.55;;;15.00;99.90;;;;;;5029884;28;20053;-74
2022/10/24 03:40:35;;;;;;;8.73;2.35;;;15.00;99.90;;;;;;5047442;28;20091;-74
2022/10/24 03:43:01;;;;;;;7.85;2.50;;;15.10;99.90;;;;;;5045217;28;20080;-73
2022/10/24 03:45:27;;;;;;;10.15;2.72;;;14.90;99.90;;;;;;5058045;28;20142;-73
2022/10/24 03:47:52;;;;;;;11.70;2.78;;;15.10;99.90;;;;;;5050381;28;20656;-73
2022/10/24 03:50:18;;;;;;;7.43;2.33;;;15.10;99.90;;;;;;5067013;28;20064;-74
2022/10/24 03:52:44;;;;;;;8.82;2.83;;;15.10;99.90;;;;;;5066805;28;20067;-73
2022/10/24 03:55:10;;;;;;;9.43;2.58;;;15.10;99.90;;;;;;5068133;28;20040;-74
2022/10/24 03:57:36;;;;;;;6.53;2.50;;;15.10;99.90;;;;;;5050588;28;20046;-73
2022/10/24 04:00:04;;;;;;;11.13;3.92;;;15.20;99.90;;;;;;5066915;28;20056;-73
2022/10/24 04:02:30;;;;;;;7.78;2.42;;;15.20;99.90;;;;;;5065940;28;20052;-73
2022/10/24 04:04:56;;;;;;;12.05;3.95;;;15.20;99.90;;;;;;5066755;28;20052;-74
2022/10/24 04:07:22;;;;;;;13.90;7.93;;;15.10;99.90;;;;;;5051969;28;20131;-74
2022/10/24 04:09:48;;;;;;;7.35;3.88;;;15.20;99.90;;;;;;5059783;28;20037;-74
2022/10/24 04:12:14;;;;;;;10.32;2.58;;;15.20;99.90;;;;;;5045417;28;20059;-73
2022/10/24 04:14:40;;;;;;;8.88;2.75;;;15.20;99.90;;;;;;5043518;28;20049;-73
2022/10/24 04:17:06;;;;;;;8.40;3.22;;;15.20;99.90;;;;;;5008554;28;20052;-74
2022/10/24 04:19:32;;;;;;;11.95;4.57;;;15.20;99.90;;;;;;5029762;28;20049;-73
2022/10/24 04:21:57;;;;;;;7.65;3.58;;;15.30;99.90;;;;;;5049631;28;20037;-73
2022/10/24 04:24:23;;;;;;;10.88;4.45;;;15.10;99.90;;;;;;5039427;28;20063;-73
2022/10/24 04:26:49;;;;;;;8.77;4.35;;;15.00;99.90;;;;;;5052854;28;20041;-73
2022/10/24 04:29:15;;;;;;;7.95;2.92;;;15.10;99.90;;;;;;5053723;28;20041;-73
2022/10/24 04:31:40;;;;;;;9.27;2.65;;;15.00;99.90;;;;;;5037853;28;20049;-73
2022/10/24 04:34:06;;;;;;;8.05;2.35;;;15.00;99.90;;;;;;5066667;28;20041;-73
2022/10/24 04:36:33;;;;;;;10.45;2.33;;;14.90;99.90;;;;;;5053948;28;20192;-73
2022/10/24 04:38:58;;;;;;;7.63;2.47;;;14.80;99.90;;;;;;5064896;28;20051;-73
2022/10/24 04:41:24;;;;;;;7.53;2.20;;;14.80;99.90;;;;;;5066516;28;20048;-73
2022/10/24 04:43:51;;;;;;;9.63;2.20;;;14.80;99.90;;;;;;5054699;28;20138;-73
2022/10/24 04:46:17;;;;;;;8.05;2.20;;;14.90;99.90;;;;;;5025508;28;20066;-73
2022/10/24 04:48:43;;;;;;;9.80;2.30;;;14.90;99.90;;;;;;5060631;28;20071;-74
2022/10/24 04:51:08;;;;;;;7.95;2.35;;;14.80;99.90;;;;;;5066298;28;20060;-73
2022/10/24 04:53:34;;;;;;;9.25;2.28;;;14.70;99.90;;;;;;5065293;28;20048;-73
2022/10/24 04:56:00;;;;;;;11.15;2.53;;;14.60;99.90;;;;;;5066104;28;20049;-73
2022/10/24 04:58:26;;;;;;;11.88;2.20;;;14.70;99.90;;;;;;5050004;28;20044;-73
2022/10/24 05:00:51;;;;;;;9.30;2.22;;;14.60;99.90;;;;;;5066374;28;20052;-72
2022/10/24 05:03:17;;;;;;;8.80;2.20;;;14.60;99.90;;;;;;5065395;28;20127;-73
2022/10/24 05:05:44;;;;;;;8.40;2.15;;;14.50;99.90;;;;;;5071246;28;20048;-73
2022/10/24 05:08:09;;;;;;;11.07;2.42;;;14.60;99.90;;;;;;5052973;28;20094;-73
2022/10/24 05:10:35;;;;;;;8.93;2.30;;;14.60;99.90;;;;;;5059178;28;20052;-73
2022/10/24 05:13:01;;;;;;;7.00;1.95;;;14.60;99.90;;;;;;5069037;28;20509;-73
2022/10/24 05:15:28;;;;;;;12.63;2.28;;;14.60;99.90;;;;;;5052993;28;20044;-73
2022/10/24 05:17:57;;;;;;;5.75;2.00;;;14.60;99.90;;;;;;5052247;28;20066;-73
2022/10/24 05:20:24;;;;;;;7.15;2.05;;;14.40;99.90;;;;;;5038265;28;20052;-74
2022/10/24 05:22:50;;;;;;;8.35;1.95;;;14.40;99.90;;;;;;5048823;28;20056;-73
2022/10/24 05:25:16;;;;;;;10.02;2.25;;;14.50;99.90;;;;;;5048667;28;20725;-73
2022/10/24 05:27:42;;;;;;;10.80;2.03;;;14.40;99.90;;;;;;5029773;28;20046;-73
2022/10/24 05:30:08;;;;;;;9.80;1.98;;;14.40;99.90;;;;;;5055256;28;20137;-72
2022/10/24 05:32:35;;;;;;;7.68;2.03;;;14.40;99.90;;;;;;5053359;28;20041;-72
2022/10/24 05:35:01;;;;;;;9.43;2.20;;;14.30;99.90;;;;;;5037408;28;20791;-72
2022/10/24 05:37:26;;;;;;;7.65;1.88;;;14.30;99.90;;;;;;5026269;28;20040;-72
2022/10/24 05:39:52;;;;;;;9.55;1.83;;;14.20;99.90;;;;;;5032761;28;20069;-72
2022/10/24 05:42:18;;;;;;;7.68;2.05;;;14.20;99.90;;;;;;5034347;28;20147;-72
2022/10/24 05:44:43;;;;;;;4.90;1.70;;;14.20;99.90;;;;;;5034487;28;20056;-73
2022/10/24 05:47:09;;;;;;;7.93;2.08;;;14.30;99.90;;;;;;5018160;28;20098;-73
2022/10/24 05:49:35;;;;;;;10.27;2.03;;;14.30;99.90;;;;;;5028933;28;20048;-72
2022/10/24 05:52:01;;;;;;;8.82;1.80;;;14.30;99.90;;;;;;5058739;28;20143;-72
2022/10/24 05:54:26;;;;;;;5.35;1.80;;;14.30;99.90;;;;;;5024462;28;20046;-72
2022/10/24 05:56:52;;;;;;;10.48;2.08;;;14.40;99.90;;;;;;5024485;28;20060;-72
2022/10/24 05:59:18;;;;;;;9.13;2.05;;;14.40;99.90;;;;;;5041194;28;20034;-72
2022/10/24 06:01:43;;;;;;;8.77;2.17;;;14.30;99.90;;;;;;5041574;28;20041;-72
2022/10/24 06:04:09;;;;;;;11.80;2.15;;;14.40;99.90;;;;;;5033415;28;20046;-72
2022/10/24 06:06:43;;;;;;;6.82;1.75;;;14.50;99.90;;;;;;5029227;28;20048;-72
2022/10/24 06:09:10;;;;;;;8.75;1.60;;;14.50;99.90;;;;;;5041366;28;20046;-72
2022/10/24 06:11:35;;;;;;;8.32;1.92;;;14.40;99.90;;;;;;5045258;28;20128;-72
2022/10/24 06:14:02;;;;;;;7.55;1.75;;;14.60;99.90;;;;;;5031597;28;20068;-72
2022/10/24 06:16:29;;;;;;;9.10;2.17;;;14.60;99.90;;;;;;5030437;28;20627;-72
2022/10/24 06:18:56;;;;;;;10.15;1.92;;;14.60;99.90;;;;;;5023974;28;20049;-72
2022/10/24 06:21:22;;;;;;;8.07;1.80;;;14.50;99.90;;;;;;5033530;28;20045;-72
2022/10/24 06:23:47;;;;;;;14.40;1.90;;;14.40;99.90;;;;;;5030917;28;20380;-72
2022/10/24 06:26:14;;;;;;;9.70;1.90;;;14.40;99.90;;;;;;5020196;28;20034;-73
2022/10/24 06:28:40;;;;;;;6.38;1.60;;;14.30;99.90;;;;;;5020217;28;20071;-71
2022/10/24 06:31:07;;;;;;;9.40;1.77;;;14.30;99.90;;;;;;5027442;28;20033;-72
2022/10/24 06:33:33;;;;;;;7.90;1.30;;;14.30;99.90;;;;;;5028201;28;20817;-72
2022/10/24 06:36:00;;;;;;;7.80;1.60;;;14.30;99.90;;;;;;5035933;28;20817;-72
2022/10/24 06:38:26;;;;;;;6.10;1.73;;;14.30;99.90;;;;;;5010457;28;20500;-72
2022/10/24 06:40:52;;;;;;;8.93;1.85;;;14.30;99.90;;;;;;5022421;28;20797;-72
2022/10/24 06:43:18;;;;;;;12.50;1.85;;;14.30;99.90;;;;;;5014742;28;20126;-72
2022/10/24 06:45:44;;;;;;;8.30;1.73;;;14.30;99.90;;;;;;5024839;28;20420;-72
2022/10/24 06:48:11;;;;;;;7.82;1.70;;;14.30;99.90;;;;;;5008955;28;20042;-72
2022/10/24 06:50:39;;;;;;;9.68;1.70;;;14.40;99.90;;;;;;5033861;28;20463;-72
2022/10/24 06:53:06;;;;;;;5.35;1.30;;;14.40;99.90;;;;;;5034870;28;20105;-72
2022/10/24 06:55:32;;;;;;;10.38;1.77;;;14.50;99.90;;;;;;5067886;28;20091;-72
2022/10/24 06:57:58;;;;;;;5.05;1.48;;;14.50;99.90;;;;;;5050896;28;20045;-72
2022/10/24 07:00:23;;;;;;;6.97;1.58;;;14.60;99.90;;;;;;5056500;28;20049;-71
2022/10/24 07:02:49;;;;;;;6.18;1.30;;;14.70;99.90;;;;;;5046835;28;20122;-72
2022/10/24 07:05:15;;;;;;;8.43;1.73;;;14.70;99.90;;;;;;5047329;28;20051;-72
2022/10/24 07:07:42;;;;;;;6.18;1.35;;;14.70;99.90;;;;;;5028632;28;20045;-72
2022/10/24 07:10:11;;;;;;;8.10;1.70;;;14.80;99.90;;;;;;5029858;28;20053;-71
2022/10/24 07:12:36;;;;;;;8.65;1.77;;;14.70;99.90;;;;;;5026940;28;20475;-72
2022/10/24 07:15:03;;;;;;;6.60;1.60;;;14.80;99.90;;;;;;5055424;28;20088;-72
2022/10/24 07:17:29;;;;;;;5.85;1.30;;;14.80;99.90;;;;;;5024046;28;20057;-72
2022/10/24 07:19:56;;;;;;;8.82;1.63;;;14.80;99.90;;;;;;5045603;28;20083;-72
2022/10/24 07:22:22;;;;;;;6.78;1.15;;;14.80;99.90;;;;;;5026705;28;20848;-73
2022/10/24 07:24:54;;;;;;;7.47;1.58;;;14.90;99.90;;;;;;5047452;28;20140;-72
2022/10/24 07:27:20;;;;;;;8.85;1.80;;;15.00;99.90;;;;;;5027615;28;20056;-72
2022/10/24 07:29:46;;;;;;;7.72;1.48;;;14.90;99.90;;;;;;5043797;28;20084;-72
2022/10/24 07:32:12;;;;;;;8.15;1.48;;;15.00;99.90;;;;;;5040370;28;20092;-72
2022/10/24 07:34:39;;;;;;;7.00;1.50;;;15.10;99.90;;;;;;5047424;28;20419;-72
2022/10/24 07:37:04;;;;;;;6.07;1.80;;;15.10;99.90;;;;;;5031662;28;20103;-71
2022/10/24 07:39:30;;;;;;;6.13;1.60;;;15.10;99.90;;;;;;5046168;28;20377;-72
2022/10/24 07:41:56;;;;;;;7.00;1.55;;;15.20;99.90;;;;;;5046783;28;20076;-72
2022/10/24 07:44:22;;;;;;;7.07;1.83;;;15.30;99.90;;;;;;5047684;28;20048;-72
2022/10/24 07:46:47;;;;;;;6.47;1.45;;;15.30;99.90;;;;;;5035183;28;20063;-72
2022/10/24 07:49:13;;;;;;;8.27;1.40;;;15.30;99.90;;;;;;5046631;28;20059;-71
2022/10/24 07:51:42;;;;;;;7.05;1.48;;;15.30;99.90;;;;;;5038804;28;21018;-72
2022/10/24 07:54:08;;;;;;;10.07;1.65;;;15.30;99.90;;;;;;5036895;28;20045;-71
2022/10/24 07:56:34;;;;;;;8.80;1.75;;;15.30;99.90;;;;;;5025118;28;20045;-72
2022/10/24 07:59:00;;;;;;;8.85;1.88;;;15.40;99.90;;;;;;5043233;28;20550;-71
2022/10/24 08:01:27;;;;;;;7.85;1.48;;;15.40;99.90;;;;;;5044294;28;20068;-72
2022/10/24 08:03:53;;;;;;;8.57;1.65;;;15.50;99.90;;;;;;5033495;28;20122;-72
2022/10/24 08:06:27;;;;;;;5.50;1.48;;;15.50;99.90;;;;;;5027936;28;20059;-72
2022/10/24 08:08:53;;;;;;;7.22;1.27;;;15.50;99.90;;;;;;5040961;28;20095;-72
2022/10/24 08:11:21;;;;;;;12.15;1.67;;;15.60;99.90;;;;;;5026785;28;20136;-72
2022/10/24 08:13:48;;;;;;;6.60;1.38;;;15.60;99.90;;;;;;5044706;28;20051;-71
2022/10/24 08:16:16;;;;;;;7.28;1.60;;;15.60;99.90;;;;;;5020417;28;20045;-72
2022/10/24 08:18:42;;;;;;;7.68;1.45;;;15.80;99.90;;;;;;5030946;28;20057;-72
2022/10/24 08:21:11;;;;;;;6.63;1.48;;;15.80;99.90;;;;;;5002116;28;20252;-72
2022/10/24 08:23:39;;;;;;;8.15;1.70;;;15.70;99.90;;;;;;5032429;28;20088;-71
2022/10/24 08:26:10;;;;;;;8.60;1.42;;;15.60;99.90;;;;;;5027804;28;20119;-72
2022/10/24 08:28:36;;;;;;;;;;;15.70;99.90;;;;;;5020502;28;20045;-71
2022/10/24 08:31:07;;;;;;;10.65;1.88;;;15.50;99.90;;;;;;5006614;28;19928;-71
2022/10/24 08:33:33;;;;;;;8.32;1.70;;;15.40;99.90;;;;;;4996057;28;20451;-73
2022/10/24 08:36:04;;;;;;;8.45;1.38;;;15.50;99.90;;;;;;5002613;28;20049;-72
2022/10/24 08:38:29;;;;;;;7.63;1.60;;;15.50;99.90;;;;;;4992345;28;20131;-72
2022/10/24 08:40:56;;;;;;;12.73;2.22;;;15.50;99.90;;;;;;5000687;28;20126;-72
2022/10/24 08:43:23;;;;;;;9.25;1.63;;;15.50;99.90;;;;;;5047732;28;20064;-71
2022/10/24 08:46:08;;;;;;;7.25;1.45;;;15.50;99.90;;;;;;5023609;28;20056;-72
2022/10/24 08:48:42;;;;;;;9.63;1.45;;;15.60;99.90;;;;;;5017162;28;20568;-72
2022/10/24 08:51:40;;;;;;;10.70;2.10;;;15.70;99.90;;;;;;5046196;28;20065;-73
2022/10/24 08:54:12;;;;;;;5.28;1.50;;;15.70;99.90;;;;;;5047019;28;20132;-71
2022/10/24 08:56:38;;;;;;;4.93;1.40;;;15.70;99.90;;;;;;5035668;28;20540;-72
2022/10/24 08:59:04;;;;;;;12.20;1.45;;;15.70;99.90;;;;;;5047691;28;20151;-72
2022/10/24 09:02:08;;;;;;;6.30;1.58;;;15.70;99.90;;;;;;5047480;28;20394;-72
2022/10/24 09:04:58;;;;;;;8.25;1.70;;;15.70;99.90;;;;;;5027300;28;20049;-72
2022/10/24 09:07:24;;;;;;;10.80;1.55;;;15.60;99.90;;;;;;5034146;28;20052;-72
2022/10/24 09:10:15;;;;;;;12.10;1.80;;;15.50;99.90;;;;;;5050998;28;20438;-72
2022/10/24 09:12:41;;;;;;;10.02;1.58;;;15.40;99.90;;;;;;5029050;28;20037;-72
2022/10/24 09:15:15;;;;;;;11.00;1.92;;;15.40;99.90;;;;;;5026031;28;20060;-72
2022/10/24 09:17:41;;;;;;;7.47;1.65;;;15.40;99.90;;;;;;4956763;28;20049;-72
2022/10/24 09:20:10;;;;;;;8.13;1.75;;;15.60;99.90;;;;;;5000988;28;20052;-72
2022/10/24 09:22:36;;;;;;;8.38;1.80;;;15.70;99.90;;;;;;5027567;28;20091;-72
2022/10/24 09:25:07;;;;;;;10.60;1.85;;;15.80;99.90;;;;;;5035964;28;20053;-72
2022/10/24 09:27:36;;;;;;;9.18;2.00;;;15.90;99.90;;;;;;5026379;28;20854;-72
2022/10/24 09:30:03;;;;;;;12.65;1.80;;;15.90;99.90;;;;;;5047442;28;20099;-72
2022/10/24 09:32:31;;;;;;;7.90;1.45;;;15.90;99.90;;;;;;5048495;28;20175;-72
2022/10/24 09:35:06;;;;;;;9.90;2.00;;;16.00;99.90;;;;;;5050003;28;20045;-72
2022/10/24 09:37:37;;;;;;;8.05;1.77;;;16.10;99.90;;;;;;5010098;28;20102;-73
2022/10/24 09:40:26;;;;;;;8.10;2.00;;;16.20;99.90;;;;;;5042637;28;20049;-72
2022/10/24 09:42:54;;;;;;;8.30;1.70;;;16.30;99.90;;;;;;5029997;28;20136;-72
2022/10/24 09:45:38;;;;;;;7.05;1.73;;;16.40;99.90;;;;;;5049213;28;20045;-72
2022/10/24 09:48:13;;;;;;;10.13;2.08;;;16.40;99.90;;;;;;5032752;28;20041;-72
2022/10/24 09:50:42;;;;;;;10.50;2.40;;;16.40;99.90;;;;;;5047570;28;20057;-72
2022/10/24 09:53:30;;;;;;;13.05;2.38;;;16.30;99.90;;;;;;5047078;28;20053;-71
2022/10/24 09:56:05;;;;;;;11.93;2.47;;;16.20;99.90;;;;;;5049992;28;20049;-71
2022/10/24 09:58:32;;;;;;;6.32;1.80;;;16.10;99.90;;;;;;5032527;28;20046;-71
2022/10/24 10:00:58;;;;;;;9.45;2.10;;;16.10;99.90;;;;;;5047761;28;20052;-73
2022/10/24 10:03:25;;;;;;;9.23;2.35;;;16.10;99.90;;;;;;5045402;28;20049;-71
2022/10/24 10:05:57;;;;;;;10.95;3.15;;;16.00;99.90;;;;;;5049595;28;20060;-72
2022/10/24 10:08:31;;;;;;;9.02;2.03;;;15.90;99.90;;;;;;5031481;28;20175;-72
2022/10/24 10:11:05;;;;;;;11.85;2.10;;;15.90;99.90;;;;;;5047429;28;20105;-72
2022/10/24 10:13:37;;;;;;;8.52;1.88;;;15.90;99.90;;;;;;5049495;28;20049;-71
2022/10/24 10:16:06;;;;;;;9.68;1.70;;;15.80;99.90;;;;;;5049167;28;20056;-72
2022/10/24 10:18:37;;;;;;;10.95;1.73;;;15.70;99.90;;;;;;5032672;28;20737;-72
2022/10/24 10:21:15;;;;;;;11.15;1.98;;;15.80;99.90;;;;;;5031637;28;20055;-72
2022/10/24 10:23:47;;;;;;;8.77;1.80;;;15.90;99.90;;;;;;5031599;28;20033;-72
2022/10/24 10:26:13;;;;;;;11.40;2.20;;;16.00;99.90;;;;;;5038290;28;20063;-72
2022/10/24 10:29:25;;;;;;;8.88;1.90;;;16.10;99.90;;;;;;5039795;28;20483;-72
2022/10/24 10:32:20;;;;;;;8.45;1.73;;;16.00;99.90;;;;;;5047022;28;20078;-71
2022/10/24 10:34:54;;;;;;;10.55;2.22;;;15.90;99.90;;;;;;5028622;28;20045;-72
2022/10/24 10:37:27;;;;;;;8.82;1.45;;;15.80;99.90;;;;;;5015343;28;20123;-72
2022/10/24 10:39:58;;;;;;;14.25;2.42;;;15.60;99.90;;;;;;5047657;28;20067;-72
2022/10/24 10:42:32;;;;;;;10.00;1.90;;;15.50;99.90;;;;;;5029691;28;20053;-71
2022/10/24 10:45:45;;;;;;;8.32;1.48;;;15.40;99.90;;;;;;5022062;28;20188;-72
2022/10/24 10:48:27;;;;;;;8.40;2.08;;;15.30;99.90;;;;;;5010312;28;20053;-72
2022/10/24 10:50:58;;;;;;;11.27;1.88;;;15.70;99.90;;;;;;5037977;28;20076;-71
2022/10/24 10:54:02;;;;;;;9.13;1.70;;;15.80;99.90;;;;;;5036514;28;20049;-71
2022/10/24 10:56:47;;;;;;;10.27;1.70;;;15.80;99.90;;;;;;4944013;28;20102;-72
2022/10/24 10:59:34;;;;;;;15.45;1.90;;;15.60;99.90;;;;;;5023811;28;20049;-72
2022/10/24 11:02:14;;;;;;;8.85;1.50;;;15.70;99.90;;;;;;5028030;28;20148;-72
2022/10/24 11:04:56;;;;;;;9.40;1.70;;;15.90;99.90;;;;;;5039051;28;20049;-72
2022/10/24 11:07:43;;;;;;;8.15;1.92;;;15.80;99.90;;;;;;5015252;28;20095;-71
2022/10/24 11:10:13;;;;;;;6.47;1.55;;;15.90;99.90;;;;;;5045134;28;20084;-72
2022/10/24 11:12:42;;;;;;;16.58;2.20;;;16.20;99.90;;;;;;5044784;28;20474;-72
2022/10/24 11:15:23;;;;;;;10.15;1.90;;;16.30;99.90;;;;;;5047152;28;20626;-72
2022/10/24 11:18:11;;;;;;;8.40;2.40;;;16.50;99.90;;;;;;5031818;28;20064;-71
2022/10/24 11:20:59;;;;;;;11.57;3.45;;;16.40;99.90;;;;;;5045338;28;20198;-72
2022/10/24 11:23:34;;;;;;;9.98;1.83;;;16.40;99.90;;;;;;5045370;28;20127;-72
2022/10/24 11:26:10;;;;;;;13.52;2.47;;;16.10;99.90;;;;;;5047933;28;20049;-72
2022/10/24 11:28:46;;;;;;;10.98;2.10;;;15.90;99.90;;;;;;5038653;28;20551;-72
2022/10/24 11:31:17;;;;;;;11.25;1.92;;;15.90;99.90;;;;;;5047217;28;20051;-71
2022/10/24 11:33:53;;;;;;;11.70;1.90;;;15.90;99.90;;;;;;5046365;28;20140;-72
2022/10/24 11:36:44;;;;;;;9.35;2.00;;;16.00;99.90;;;;;;5035295;28;20051;-72
2022/10/24 11:39:26;;;;;;;12.18;1.90;;;15.90;99.90;;;;;;5045066;28;20056;-71
2022/10/24 11:42:21;;;;;;;9.10;2.13;;;15.70;99.90;;;;;;5050886;28;20135;-71
2022/10/24 11:44:54;;;;;;;9.40;2.13;;;15.60;99.90;;;;;;4997851;28;20045;-72
2022/10/24 11:47:23;;;;;;;12.18;2.17;;;16.00;99.90;;;;;;5036494;28;20068;-72
2022/10/24 11:50:03;;;;;;;9.93;2.05;;;16.10;99.90;;;;;;5030966;28;20175;-71
2022/10/24 11:52:34;;;;;;;9.83;1.90;;;16.30;99.90;;;;;;5051617;28;20052;-73
2022/10/24 11:55:17;;;;;;;9.90;2.20;;;16.20;99.90;;;;;;5054398;28;20049;-72
2022/10/24 11:57:47;;;;;;;8.52;1.77;;;16.20;99.90;;;;;;5035992;28;20048;-72
2022/10/24 12:00:24;;;;;;;11.25;1.75;;;16.40;99.90;;;;;;5053324;28;20036;-72
2022/10/24 12:03:11;;;;;;;12.82;2.42;;;16.60;99.90;;;;;;5049492;28;20085;-71
2022/10/24 12:05:55;;;;;;;12.20;1.90;;;16.40;99.90;;;;;;5043092;28;20466;-73
2022/10/24 12:08:33;;;;;;;8.95;1.90;;;16.50;99.90;;;;;;5029884;28;20060;-71
2022/10/24 12:11:18;;;;;;;9.23;1.67;;;16.20;99.90;;;;;;5048570;28;20067;-72
2022/10/24 12:13:59;;;;;;;10.13;1.60;;;16.30;99.90;;;;;;5047900;28;20075;-72
2022/10/24 12:16:37;;;;;;;15.50;2.50;;;16.50;99.90;;;;;;5034398;28;20049;-71
2022/10/24 12:19:13;;;;;;;6.80;1.67;;;16.40;99.90;;;;;;5040899;28;20186;-72
2022/10/24 12:21:45;;;;;;;9.05;1.95;;;16.30;99.90;;;;;;5044432;28;20049;-72
2022/10/24 12:24:34;;;;;;;8.85;1.80;;;16.20;99.90;;;;;;5046739;28;20419;-71
2022/10/24 12:27:27;;;;;;;11.10;2.00;;;16.10;99.90;;;;;;5035144;28;20053;-72
2022/10/24 12:30:08;;;;;;;9.07;1.70;;;16.00;99.90;;;;;;5045319;28;20284;-71
2022/10/24 12:32:44;;;;;;;12.40;1.63;;;16.00;99.90;;;;;;5044609;28;20456;-71
2022/10/24 12:35:25;;;;;;;9.70;1.85;;;16.20;99.90;;;;;;5045118;28;20392;-71
2022/10/24 12:37:55;;;;;;;8.25;1.98;;;16.20;99.90;;;;;;5030405;28;20709;-72
2022/10/24 12:40:50;;;;;;;10.30;2.05;;;16.10;99.90;;;;;;5044803;28;20434;-71
2022/10/24 12:43:35;;;;;;;9.25;1.90;;;15.90;99.90;;;;;;5040659;28;20088;-72
2022/10/24 12:46:27;;;;;;;14.63;2.17;;;15.80;99.90;;;;;;5048957;28;20049;-72
2022/10/24 12:48:55;;;;;;;9.90;1.92;;;15.70;99.90;;;;;;5007826;28;20041;-71
2022/10/24 12:51:29;;;;;;;7.47;1.55;;;15.70;99.90;;;;;;5044860;28;20065;-72
2022/10/24 12:54:12;;;;;;;12.82;1.92;;;15.70;99.90;;;;;;5045592;28;20049;-72
2022/10/24 12:56:50;;;;;;;9.95;2.22;;;15.40;99.90;;;;;;5030669;28;20511;-72
2022/10/24 12:59:20;;;;;;;9.00;1.80;;;15.30;99.90;;;;;;5044348;28;20523;-72
2022/10/24 13:01:48;;;;;;;10.48;1.80;;;15.30;99.90;;;;;;5044903;28;20044;-71
2022/10/24 13:04:17;;;;;;;7.85;1.92;;;15.40;99.90;;;;;;5045040;28;20152;-72
2022/10/24 13:07:32;;;;;;;10.00;1.88;;;15.50;99.90;;;;;;5033542;28;20572;-71